General Aviation Weather

Text Reports

Enter one or more of the following location identifiers separated by a space:

Zip Code, Four-Character ICAO or Three-Character IATA airport codes.

METAR - Aviation Routine Weather Report
LTBO - Usak,
Updated at 1:50 PM GMT on July 22, 2016 (4:50 PM EEST):
METAR LTBO 221350Z 25012KT 9999 FEW040 30/03 Q1016
TAF - Terminal Area Forecast
LTBO - Usak,
Updated at 1:50 PM GMT on July 22, 2016 (4:50 PM EEST):
TAF LTBO 240140Z 2403/2412 07010KT CAVOK=
Decoded:
ID: LTBO   Usak, TU
REPORT TIME: 23 10:40
VALID TIME: 23 July AT 12:00Z to 23 July AT 21:00Z.
INITIAL WX
   WIND: VARIABLE AT 2
   WEATHER: CAVOK
WX BECOMING FROM 14Z TO 16Z
   WINDS: 60 AT 12
   COMMENTS: = 

PIREP - Pilot Weather Report
LTBO - Usak,
Updated at 1:50 PM GMT on July 22, 2016 (4:50 PM EEST):
No PIREP is currently available for this location.
AIRMET - Airmens Meteorological Information
LTBO - Usak,
Updated at 1:50 PM GMT on July 22, 2016 (4:50 PM EEST):
No AIRMET is currently available for this location.
SIGMET - Significant Meteorological Information
LTBO - Usak,
Updated at 1:50 PM GMT on July 22, 2016 (4:50 PM EEST):
No SIGMET is currently available for this location.
NOTAM - Notice to Airmen
LTBO - Usak,
Updated at 1:50 PM GMT on July 22, 2016 (4:50 PM EEST):
No NOTAM is currently available for this location.
Forecast Area
LTBO - Usak,
Updated at 1:50 PM GMT on July 22, 2016 (4:50 PM EEST):
No NOTAM is currently available for this location.
Aviation Weather Maps